sensor_id;sensor_type;location;lat;lon;timestamp;P1;durP1;ratioP1;P2;durP2;ratioP2
13493;SDS011;6819;50.886;4.332;2022-09-01T00:00:38;6.80;;;2.72;;
13493;SDS011;6819;50.886;4.332;2022-09-01T00:03:06;7.05;;;3.00;;
13493;SDS011;6819;50.886;4.332;2022-09-01T00:05:34;7.38;;;2.90;;
13493;SDS011;6819;50.886;4.332;2022-09-01T00:08:01;5.90;;;3.10;;
13493;SDS011;6819;50.886;4.332;2022-09-01T00:10:27;5.72;;;2.70;;
13493;SDS011;6819;50.886;4.332;2022-09-01T00:12:53;5.63;;;2.97;;
13493;SDS011;6819;50.886;4.332;2022-09-01T00:15:19;4.30;;;2.85;;
13493;SDS011;6819;50.886;4.332;2022-09-01T00:17:45;5.65;;;3.28;;
13493;SDS011;6819;50.886;4.332;2022-09-01T00:20:11;4.97;;;2.63;;
13493;SDS011;6819;50.886;4.332;2022-09-01T00:22:38;8.15;;;2.90;;
13493;SDS011;6819;50.886;4.332;2022-09-01T00:25:04;5.35;;;2.80;;
13493;SDS011;6819;50.886;4.332;2022-09-01T00:27:32;6.45;;;2.80;;
13493;SDS011;6819;50.886;4.332;2022-09-01T00:29:58;3.50;;;2.80;;
13493;SDS011;6819;50.886;4.332;2022-09-01T00:32:24;3.70;;;2.60;;
13493;SDS011;6819;50.886;4.332;2022-09-01T00:34:50;5.72;;;3.33;;
13493;SDS011;6819;50.886;4.332;2022-09-01T00:37:16;5.50;;;2.65;;
13493;SDS011;6819;50.886;4.332;2022-09-01T00:39:42;4.88;;;2.90;;
13493;SDS011;6819;50.886;4.332;2022-09-01T00:42:08;6.63;;;3.30;;
13493;SDS011;6819;50.886;4.332;2022-09-01T00:44:35;7.88;;;2.78;;
13493;SDS011;6819;50.886;4.332;2022-09-01T00:47:02;4.70;;;2.70;;
13493;SDS011;6819;50.886;4.332;2022-09-01T00:49:38;7.40;;;2.85;;
13493;SDS011;6819;50.886;4.332;2022-09-01T00:52:06;7.30;;;3.00;;
13493;SDS011;6819;50.886;4.332;2022-09-01T00:54:34;6.32;;;3.08;;
13493;SDS011;6819;50.886;4.332;2022-09-01T00:57:01;5.72;;;2.83;;
13493;SDS011;6819;50.886;4.332;2022-09-01T00:59:27;4.45;;;2.60;;
13493;SDS011;6819;50.886;4.332;2022-09-01T01:01:54;6.57;;;3.15;;
13493;SDS011;6819;50.886;4.332;2022-09-01T01:04:20;7.75;;;2.65;;
13493;SDS011;6819;50.886;4.332;2022-09-01T01:06:48;6.10;;;2.90;;
13493;SDS011;6819;50.886;4.332;2022-09-01T01:09:22;5.97;;;2.85;;
13493;SDS011;6819;50.886;4.332;2022-09-01T01:11:48;4.30;;;2.88;;
13493;SDS011;6819;50.886;4.332;2022-09-01T01:14:15;5.90;;;2.63;;
13493;SDS011;6819;50.886;4.332;2022-09-01T01:16:46;6.38;;;2.90;;
13493;SDS011;6819;50.886;4.332;2022-09-01T01:22:04;4.82;;;2.33;;
13493;SDS011;6819;50.886;4.332;2022-09-01T01:24:51;5.57;;;2.40;;
13493;SDS011;6819;50.886;4.332;2022-09-01T01:27:17;3.58;;;2.58;;
13493;SDS011;6819;50.886;4.332;2022-09-01T01:29:46;5.75;;;2.70;;
13493;SDS011;6819;50.886;4.332;2022-09-01T01:32:14;3.47;;;2.20;;
13493;SDS011;6819;50.886;4.332;2022-09-01T01:34:40;4.25;;;2.40;;
13493;SDS011;6819;50.886;4.332;2022-09-01T01:37:09;3.33;;;2.10;;
13493;SDS011;6819;50.886;4.332;2022-09-01T01:39:38;5.15;;;2.58;;
13493;SDS011;6819;50.886;4.332;2022-09-01T01:42:06;4.45;;;2.22;;
13493;SDS011;6819;50.886;4.332;2022-09-01T01:44:33;3.72;;;2.38;;
13493;SDS011;6819;50.886;4.332;2022-09-01T01:47:01;4.53;;;3.05;;
13493;SDS011;6819;50.886;4.332;2022-09-01T01:49:29;4.35;;;2.58;;
13493;SDS011;6819;50.886;4.332;2022-09-01T01:51:55;7.05;;;2.45;;
13493;SDS011;6819;50.886;4.332;2022-09-01T01:54:23;4.20;;;2.42;;
13493;SDS011;6819;50.886;4.332;2022-09-01T01:56:50;4.70;;;2.25;;
13493;SDS011;6819;50.886;4.332;2022-09-01T01:59:16;4.53;;;2.85;;
13493;SDS011;6819;50.886;4.332;2022-09-01T02:01:44;4.25;;;2.30;;
13493;SDS011;6819;50.886;4.332;2022-09-01T02:04:15;4.93;;;2.38;;
13493;SDS011;6819;50.886;4.332;2022-09-01T02:06:41;2.90;;;2.25;;
13493;SDS011;6819;50.886;4.332;2022-09-01T02:09:10;6.60;;;2.20;;
13493;SDS011;6819;50.886;4.332;2022-09-01T02:11:36;6.90;;;2.22;;
13493;SDS011;6819;50.886;4.332;2022-09-01T02:14:03;6.03;;;2.72;;
13493;SDS011;6819;50.886;4.332;2022-09-01T02:16:30;10.70;;;2.30;;
13493;SDS011;6819;50.886;4.332;2022-09-01T02:18:57;3.60;;;2.22;;
13493;SDS011;6819;50.886;4.332;2022-09-01T02:21:23;4.35;;;2.30;;
13493;SDS011;6819;50.886;4.332;2022-09-01T02:24:01;4.35;;;2.42;;
13493;SDS011;6819;50.886;4.332;2022-09-01T02:26:29;4.22;;;2.13;;
13493;SDS011;6819;50.886;4.332;2022-09-01T02:28:56;5.53;;;2.35;;
13493;SDS011;6819;50.886;4.332;2022-09-01T02:31:25;4.97;;;2.15;;
13493;SDS011;6819;50.886;4.332;2022-09-01T02:33:52;4.50;;;2.47;;
13493;SDS011;6819;50.886;4.332;2022-09-01T02:36:18;4.68;;;2.10;;
13493;SDS011;6819;50.886;4.332;2022-09-01T02:38:45;4.22;;;2.35;;
13493;SDS011;6819;50.886;4.332;2022-09-01T02:41:13;5.45;;;2.38;;
13493;SDS011;6819;50.886;4.332;2022-09-01T02:43:44;5.25;;;2.53;;
13493;SDS011;6819;50.886;4.332;2022-09-01T02:46:10;3.72;;;2.00;;
13493;SDS011;6819;50.886;4.332;2022-09-01T02:48:38;4.68;;;2.58;;
13493;SDS011;6819;50.886;4.332;2022-09-01T02:51:09;3.72;;;2.30;;
13493;SDS011;6819;50.886;4.332;2022-09-01T02:53:36;6.63;;;2.17;;
13493;SDS011;6819;50.886;4.332;2022-09-01T02:56:03;6.68;;;2.22;;
13493;SDS011;6819;50.886;4.332;2022-09-01T02:58:33;4.47;;;2.20;;
13493;SDS011;6819;50.886;4.332;2022-09-01T03:01:13;5.93;;;2.25;;
13493;SDS011;6819;50.886;4.332;2022-09-01T03:03:50;5.70;;;2.08;;
13493;SDS011;6819;50.886;4.332;2022-09-01T03:06:17;7.90;;;2.67;;
13493;SDS011;6819;50.886;4.332;2022-09-01T03:08:45;7.10;;;2.40;;
13493;SDS011;6819;50.886;4.332;2022-09-01T03:11:11;5.22;;;2.50;;
13493;SDS011;6819;50.886;4.332;2022-09-01T03:13:38;8.63;;;2.55;;
13493;SDS011;6819;50.886;4.332;2022-09-01T03:16:05;4.65;;;2.47;;
13493;SDS011;6819;50.886;4.332;2022-09-01T03:18:31;6.53;;;2.80;;
13493;SDS011;6819;50.886;4.332;2022-09-01T03:20:57;4.53;;;2.30;;
13493;SDS011;6819;50.886;4.332;2022-09-01T03:23:23;5.68;;;2.53;;
13493;SDS011;6819;50.886;4.332;2022-09-01T03:25:49;3.85;;;2.47;;
13493;SDS011;6819;50.886;4.332;2022-09-01T03:28:15;5.60;;;2.67;;
13493;SDS011;6819;50.886;4.332;2022-09-01T03:30:45;7.32;;;2.50;;
13493;SDS011;6819;50.886;4.332;2022-09-01T03:33:13;6.70;;;2.90;;
13493;SDS011;6819;50.886;4.332;2022-09-01T03:35:40;6.80;;;3.03;;
13493;SDS011;6819;50.886;4.332;2022-09-01T03:38:06;6.22;;;3.03;;
13493;SDS011;6819;50.886;4.332;2022-09-01T03:40:33;7.72;;;3.30;;
13493;SDS011;6819;50.886;4.332;2022-09-01T03:43:01;7.90;;;2.90;;
13493;SDS011;6819;50.886;4.332;2022-09-01T03:45:28;4.07;;;2.50;;
13493;SDS011;6819;50.886;4.332;2022-09-01T03:47:55;5.03;;;2.80;;
13493;SDS011;6819;50.886;4.332;2022-09-01T03:50:22;5.18;;;3.08;;
13493;SDS011;6819;50.886;4.332;2022-09-01T03:52:52;9.32;;;3.00;;
13493;SDS011;6819;50.886;4.332;2022-09-01T03:55:21;7.35;;;3.40;;
13493;SDS011;6819;50.886;4.332;2022-09-01T03:57:58;7.05;;;3.47;;
13493;SDS011;6819;50.886;4.332;2022-09-01T04:00:26;7.85;;;3.58;;
13493;SDS011;6819;50.886;4.332;2022-09-01T04:02:54;6.97;;;3.40;;
13493;SDS011;6819;50.886;4.332;2022-09-01T04:05:21;7.95;;;3.28;;
13493;SDS011;6819;50.886;4.332;2022-09-01T04:07:49;6.18;;;3.42;;
13493;SDS011;6819;50.886;4.332;2022-09-01T04:10:16;8.50;;;3.60;;
13493;SDS011;6819;50.886;4.332;2022-09-01T04:12:43;5.90;;;3.53;;
13493;SDS011;6819;50.886;4.332;2022-09-01T04:15:10;7.68;;;3.25;;
13493;SDS011;6819;50.886;4.332;2022-09-01T04:17:36;6.32;;;3.30;;
13493;SDS011;6819;50.886;4.332;2022-09-01T04:20:20;5.40;;;3.50;;
13493;SDS011;6819;50.886;4.332;2022-09-01T04:22:47;9.55;;;3.58;;
13493;SDS011;6819;50.886;4.332;2022-09-01T04:25:14;10.43;;;3.95;;
13493;SDS011;6819;50.886;4.332;2022-09-01T04:27:41;8.10;;;3.85;;
13493;SDS011;6819;50.886;4.332;2022-09-01T04:30:10;11.48;;;3.92;;
13493;SDS011;6819;50.886;4.332;2022-09-01T04:32:36;6.97;;;4.05;;
13493;SDS011;6819;50.886;4.332;2022-09-01T04:35:04;11.98;;;4.40;;
13493;SDS011;6819;50.886;4.332;2022-09-01T04:37:30;13.40;;;4.40;;
13493;SDS011;6819;50.886;4.332;2022-09-01T04:40:00;8.60;;;4.13;;
13493;SDS011;6819;50.886;4.332;2022-09-01T04:42:28;7.55;;;3.53;;
13493;SDS011;6819;50.886;4.332;2022-09-01T04:44:56;10.48;;;3.72;;
13493;SDS011;6819;50.886;4.332;2022-09-01T04:47:24;8.32;;;3.95;;
13493;SDS011;6819;50.886;4.332;2022-09-01T04:49:56;6.20;;;3.80;;
13493;SDS011;6819;50.886;4.332;2022-09-01T04:52:24;7.55;;;3.78;;
13493;SDS011;6819;50.886;4.332;2022-09-01T04:54:50;6.57;;;3.72;;
13493;SDS011;6819;50.886;4.332;2022-09-01T04:57:16;7.18;;;4.03;;
13493;SDS011;6819;50.886;4.332;2022-09-01T04:59:42;6.68;;;3.83;;
13493;SDS011;6819;50.886;4.332;2022-09-01T05:02:09;7.90;;;3.90;;
13493;SDS011;6819;50.886;4.332;2022-09-01T05:04:36;7.30;;;3.90;;
13493;SDS011;6819;50.886;4.332;2022-09-01T05:07:04;7.63;;;4.18;;
13493;SDS011;6819;50.886;4.332;2022-09-01T05:09:33;7.38;;;3.70;;
13493;SDS011;6819;50.886;4.332;2022-09-01T05:12:00;7.28;;;3.55;;
13493;SDS011;6819;50.886;4.332;2022-09-01T05:17:00;2.70;;;2.28;;
13493;SDS011;6819;50.886;4.332;2022-09-01T05:19:27;5.78;;;3.28;;
13493;SDS011;6819;50.886;4.332;2022-09-01T05:21:54;6.78;;;3.53;;
13493;SDS011;6819;50.886;4.332;2022-09-01T05:24:22;10.43;;;3.00;;
13493;SDS011;6819;50.886;4.332;2022-09-01T05:26:54;8.57;;;4.05;;
13493;SDS011;6819;50.886;4.332;2022-09-01T05:29:20;10.43;;;3.65;;
13493;SDS011;6819;50.886;4.332;2022-09-01T05:31:47;5.30;;;3.35;;
13493;SDS011;6819;50.886;4.332;2022-09-01T05:34:14;8.05;;;4.07;;
13493;SDS011;6819;50.886;4.332;2022-09-01T05:36:44;7.57;;;4.43;;
13493;SDS011;6819;50.886;4.332;2022-09-01T05:39:14;13.50;;;4.03;;
13493;SDS011;6819;50.886;4.332;2022-09-01T05:41:40;8.25;;;3.70;;
13493;SDS011;6819;50.886;4.332;2022-09-01T05:44:06;9.80;;;4.53;;
13493;SDS011;6819;50.886;4.332;2022-09-01T05:46:34;6.50;;;3.83;;
13493;SDS011;6819;50.886;4.332;2022-09-01T05:49:01;6.57;;;3.45;;
13493;SDS011;6819;50.886;4.332;2022-09-01T05:51:28;12.20;;;4.63;;
13493;SDS011;6819;50.886;4.332;2022-09-01T05:53:59;7.85;;;3.95;;
13493;SDS011;6819;50.886;4.332;2022-09-01T05:56:26;7.47;;;4.13;;
13493;SDS011;6819;50.886;4.332;2022-09-01T05:58:53;10.93;;;5.20;;
13493;SDS011;6819;50.886;4.332;2022-09-01T06:01:20;11.95;;;4.50;;
13493;SDS011;6819;50.886;4.332;2022-09-01T06:03:49;13.48;;;4.93;;
13493;SDS011;6819;50.886;4.332;2022-09-01T06:06:18;6.57;;;3.97;;
13493;SDS011;6819;50.886;4.332;2022-09-01T06:08:46;14.65;;;4.70;;
13493;SDS011;6819;50.886;4.332;2022-09-01T06:11:13;7.88;;;3.92;;
13493;SDS011;6819;50.886;4.332;2022-09-01T06:13:40;9.45;;;4.47;;
13493;SDS011;6819;50.886;4.332;2022-09-01T06:16:07;11.75;;;4.47;;
13493;SDS011;6819;50.886;4.332;2022-09-01T06:18:34;12.35;;;4.57;;
13493;SDS011;6819;50.886;4.332;2022-09-01T06:21:02;8.90;;;4.35;;
13493;SDS011;6819;50.886;4.332;2022-09-01T06:23:28;8.77;;;4.53;;
13493;SDS011;6819;50.886;4.332;2022-09-01T06:25:55;8.23;;;4.50;;
13493;SDS011;6819;50.886;4.332;2022-09-01T06:28:22;10.10;;;4.68;;
13493;SDS011;6819;50.886;4.332;2022-09-01T06:30:49;10.00;;;4.43;;
13493;SDS011;6819;50.886;4.332;2022-09-01T06:33:15;11.13;;;5.22;;
13493;SDS011;6819;50.886;4.332;2022-09-01T06:35:42;9.10;;;5.00;;
13493;SDS011;6819;50.886;4.332;2022-09-01T06:38:11;9.65;;;4.78;;
13493;SDS011;6819;50.886;4.332;2022-09-01T06:40:37;14.85;;;4.40;;
13493;SDS011;6819;50.886;4.332;2022-09-01T06:43:06;10.02;;;4.63;;
13493;SDS011;6819;50.886;4.332;2022-09-01T06:45:33;7.35;;;4.60;;
13493;SDS011;6819;50.886;4.332;2022-09-01T06:48:02;18.50;;;4.80;;
13493;SDS011;6819;50.886;4.332;2022-09-01T06:50:28;8.40;;;3.75;;
13493;SDS011;6819;50.886;4.332;2022-09-01T06:52:54;10.90;;;4.28;;
13493;SDS011;6819;50.886;4.332;2022-09-01T06:55:34;14.10;;;5.35;;
13493;SDS011;6819;50.886;4.332;2022-09-01T06:58:01;10.20;;;4.43;;
13493;SDS011;6819;50.886;4.332;2022-09-01T07:00:29;11.02;;;4.40;;
13493;SDS011;6819;50.886;4.332;2022-09-01T07:02:55;15.75;;;4.68;;
13493;SDS011;6819;50.886;4.332;2022-09-01T07:05:22;10.75;;;5.00;;
13493;SDS011;6819;50.886;4.332;2022-09-01T07:07:52;9.23;;;4.97;;
13493;SDS011;6819;50.886;4.332;2022-09-01T07:10:26;11.70;;;4.72;;
13493;SDS011;6819;50.886;4.332;2022-09-01T07:12:53;10.07;;;4.03;;
13493;SDS011;6819;50.886;4.332;2022-09-01T07:15:20;14.45;;;4.70;;
13493;SDS011;6819;50.886;4.332;2022-09-01T07:17:53;10.70;;;4.60;;
13493;SDS011;6819;50.886;4.332;2022-09-01T07:20:22;15.65;;;4.68;;
13493;SDS011;6819;50.886;4.332;2022-09-01T07:22:50;8.35;;;4.00;;
13493;SDS011;6819;50.886;4.332;2022-09-01T07:25:16;10.45;;;3.75;;
13493;SDS011;6819;50.886;4.332;2022-09-01T07:27:43;7.10;;;3.80;;
13493;SDS011;6819;50.886;4.332;2022-09-01T07:30:17;11.05;;;4.65;;
13493;SDS011;6819;50.886;4.332;2022-09-01T07:32:43;9.45;;;3.90;;
13493;SDS011;6819;50.886;4.332;2022-09-01T07:35:11;9.13;;;4.32;;
13493;SDS011;6819;50.886;4.332;2022-09-01T07:37:37;7.70;;;4.00;;
13493;SDS011;6819;50.886;4.332;2022-09-01T07:40:07;8.88;;;4.18;;
13493;SDS011;6819;50.886;4.332;2022-09-01T07:42:34;7.18;;;3.90;;
13493;SDS011;6819;50.886;4.332;2022-09-01T07:45:02;6.32;;;3.38;;
13493;SDS011;6819;50.886;4.332;2022-09-01T07:47:32;12.10;;;3.78;;
13493;SDS011;6819;50.886;4.332;2022-09-01T07:50:01;11.27;;;3.70;;
13493;SDS011;6819;50.886;4.332;2022-09-01T07:52:33;7.25;;;3.55;;
13493;SDS011;6819;50.886;4.332;2022-09-01T07:54:59;9.02;;;3.50;;
13493;SDS011;6819;50.886;4.332;2022-09-01T07:57:25;8.15;;;3.53;;
13493;SDS011;6819;50.886;4.332;2022-09-01T07:59:51;7.95;;;4.00;;
13493;SDS011;6819;50.886;4.332;2022-09-01T08:02:20;11.50;;;4.40;;
13493;SDS011;6819;50.886;4.332;2022-09-01T08:04:46;12.48;;;4.07;;
13493;SDS011;6819;50.886;4.332;2022-09-01T08:07:13;7.60;;;4.00;;
13493;SDS011;6819;50.886;4.332;2022-09-01T08:09:40;8.95;;;3.50;;
13493;SDS011;6819;50.886;4.332;2022-09-01T08:12:07;6.80;;;3.72;;
13493;SDS011;6819;50.886;4.332;2022-09-01T08:14:33;9.55;;;3.67;;
13493;SDS011;6819;50.886;4.332;2022-09-01T08:16:59;7.97;;;3.58;;
13493;SDS011;6819;50.886;4.332;2022-09-01T08:19:25;6.57;;;3.63;;
13493;SDS011;6819;50.886;4.332;2022-09-01T08:21:51;5.13;;;3.63;;
13493;SDS011;6819;50.886;4.332;2022-09-01T08:24:17;9.45;;;3.92;;
13493;SDS011;6819;50.886;4.332;2022-09-01T08:26:43;12.88;;;3.85;;
13493;SDS011;6819;50.886;4.332;2022-09-01T08:29:09;9.75;;;3.83;;
13493;SDS011;6819;50.886;4.332;2022-09-01T08:31:35;6.80;;;3.45;;
13493;SDS011;6819;50.886;4.332;2022-09-01T08:34:01;8.32;;;3.30;;
13493;SDS011;6819;50.886;4.332;2022-09-01T08:36:29;8.77;;;3.40;;
13493;SDS011;6819;50.886;4.332;2022-09-01T08:38:56;8.20;;;3.92;;
13493;SDS011;6819;50.886;4.332;2022-09-01T08:41:35;7.70;;;3.38;;
13493;SDS011;6819;50.886;4.332;2022-09-01T08:46:33;3.40;;;2.97;;
13493;SDS011;6819;50.886;4.332;2022-09-01T08:49:00;12.00;;;3.33;;
13493;SDS011;6819;50.886;4.332;2022-09-01T08:51:31;13.52;;;2.83;;
13493;SDS011;6819;50.886;4.332;2022-09-01T08:54:15;4.55;;;2.70;;
13493;SDS011;6819;50.886;4.332;2022-09-01T08:56:45;6.60;;;2.80;;
13493;SDS011;6819;50.886;4.332;2022-09-01T08:59:11;6.03;;;2.83;;
13493;SDS011;6819;50.886;4.332;2022-09-01T09:01:43;5.53;;;2.67;;
13493;SDS011;6819;50.886;4.332;2022-09-01T09:06:52;6.93;;;2.85;;
13493;SDS011;6819;50.886;4.332;2022-09-01T09:09:25;10.70;;;3.00;;
13493;SDS011;6819;50.886;4.332;2022-09-01T09:16:58;4.60;;;2.80;;
13493;SDS011;6819;50.886;4.332;2022-09-01T09:21:54;4.40;;;2.30;;
13493;SDS011;6819;50.886;4.332;2022-09-01T09:26:51;4.32;;;2.50;;
13493;SDS011;6819;50.886;4.332;2022-09-01T09:29:17;10.02;;;3.22;;
13493;SDS011;6819;50.886;4.332;2022-09-01T09:31:44;6.93;;;2.70;;
13493;SDS011;6819;50.886;4.332;2022-09-01T09:34:17;4.53;;;2.30;;
13493;SDS011;6819;50.886;4.332;2022-09-01T09:36:43;7.22;;;2.40;;
13493;SDS011;6819;50.886;4.332;2022-09-01T09:41:37;7.50;;;2.33;;
13493;SDS011;6819;50.886;4.332;2022-09-01T09:44:47;3.45;;;2.40;;
13493;SDS011;6819;50.886;4.332;2022-09-01T09:46:56;3.80;;;2.83;;
13493;SDS011;6819;50.886;4.332;2022-09-01T09:49:24;8.73;;;2.53;;
13493;SDS011;6819;50.886;4.332;2022-09-01T09:51:57;6.45;;;2.50;;
13493;SDS011;6819;50.886;4.332;2022-09-01T09:54:37;4.20;;;2.15;;
13493;SDS011;6819;50.886;4.332;2022-09-01T09:59:35;3.67;;;2.10;;
13493;SDS011;6819;50.886;4.332;2022-09-01T10:04:47;5.47;;;2.22;;
13493;SDS011;6819;50.886;4.332;2022-09-01T10:07:23;4.32;;;2.28;;
13493;SDS011;6819;50.886;4.332;2022-09-01T10:09:51;3.95;;;2.10;;
13493;SDS011;6819;50.886;4.332;2022-09-01T10:12:17;2.30;;;1.90;;
13493;SDS011;6819;50.886;4.332;2022-09-01T10:14:57;3.55;;;2.10;;
13493;SDS011;6819;50.886;4.332;2022-09-01T10:17:29;9.23;;;2.00;;
13493;SDS011;6819;50.886;4.332;2022-09-01T10:19:59;5.40;;;2.00;;
13493;SDS011;6819;50.886;4.332;2022-09-01T10:22:30;2.33;;;1.90;;
13493;SDS011;6819;50.886;4.332;2022-09-01T10:24:57;4.40;;;2.00;;
13493;SDS011;6819;50.886;4.332;2022-09-01T10:27:25;4.35;;;1.92;;
13493;SDS011;6819;50.886;4.332;2022-09-01T10:30:11;3.83;;;2.75;;
13493;SDS011;6819;50.886;4.332;2022-09-01T10:35:07;2.38;;;1.90;;
13493;SDS011;6819;50.886;4.332;2022-09-01T10:37:35;7.78;;;2.10;;
13493;SDS011;6819;50.886;4.332;2022-09-01T10:40:11;5.13;;;2.25;;
13493;SDS011;6819;50.886;4.332;2022-09-01T10:42:38;3.15;;;1.73;;
13493;SDS011;6819;50.886;4.332;2022-09-01T10:45:07;3.35;;;1.80;;
13493;SDS011;6819;50.886;4.332;2022-09-01T10:55:16;3.08;;;2.00;;
13493;SDS011;6819;50.886;4.332;2022-09-01T10:57:48;3.70;;;1.90;;
13493;SDS011;6819;50.886;4.332;2022-09-01T11:03:31;2.38;;;1.85;;
13493;SDS011;6819;50.886;4.332;2022-09-01T11:13:42;11.88;;;1.95;;
13493;SDS011;6819;50.886;4.332;2022-09-01T11:16:23;5.22;;;1.90;;
13493;SDS011;6819;50.886;4.332;2022-09-01T11:18:50;4.68;;;2.00;;
13493;SDS011;6819;50.886;4.332;2022-09-01T11:21:22;2.53;;;1.70;;
13493;SDS011;6819;50.886;4.332;2022-09-01T11:23:50;4.80;;;1.80;;
13493;SDS011;6819;50.886;4.332;2022-09-01T11:28:58;5.30;;;2.00;;
13493;SDS011;6819;50.886;4.332;2022-09-01T11:31:27;3.15;;;1.65;;
13493;SDS011;6819;50.886;4.332;2022-09-01T11:34:09;5.70;;;1.85;;
13493;SDS011;6819;50.886;4.332;2022-09-01T11:46:47;4.05;;;1.88;;
13493;SDS011;6819;50.886;4.332;2022-09-01T11:49:29;3.22;;;1.75;;
13493;SDS011;6819;50.886;4.332;2022-09-01T11:51:56;4.50;;;1.75;;
13493;SDS011;6819;50.886;4.332;2022-09-01T11:54:24;6.03;;;2.10;;
13493;SDS011;6819;50.886;4.332;2022-09-01T11:56:50;3.67;;;1.90;;
13493;SDS011;6819;50.886;4.332;2022-09-01T11:59:32;4.20;;;2.22;;
13493;SDS011;6819;50.886;4.332;2022-09-01T12:01:59;3.47;;;2.22;;
13493;SDS011;6819;50.886;4.332;2022-09-01T12:04:29;3.65;;;1.95;;
13493;SDS011;6819;50.886;4.332;2022-09-01T12:09:22;8.10;;;2.20;;
13493;SDS011;6819;50.886;4.332;2022-09-01T12:11:55;6.93;;;2.58;;
13493;SDS011;6819;50.886;4.332;2022-09-01T12:14:21;3.08;;;2.13;;
13493;SDS011;6819;50.886;4.332;2022-09-01T12:16:55;3.90;;;1.77;;
13493;SDS011;6819;50.886;4.332;2022-09-01T12:19:22;4.95;;;2.10;;
13493;SDS011;6819;50.886;4.332;2022-09-01T12:21:55;5.07;;;2.00;;
13493;SDS011;6819;50.886;4.332;2022-09-01T12:24:22;3.13;;;1.92;;
13493;SDS011;6819;50.886;4.332;2022-09-01T12:26:49;4.60;;;2.15;;
13493;SDS011;6819;50.886;4.332;2022-09-01T12:29:18;5.40;;;2.20;;
13493;SDS011;6819;50.886;4.332;2022-09-01T12:31:45;2.25;;;1.70;;
13493;SDS011;6819;50.886;4.332;2022-09-01T12:39:32;2.65;;;1.90;;
13493;SDS011;6819;50.886;4.332;2022-09-01T12:47:04;2.47;;;1.80;;
13493;SDS011;6819;50.886;4.332;2022-09-01T12:49:41;5.30;;;1.85;;
13493;SDS011;6819;50.886;4.332;2022-09-01T12:54:39;3.20;;;1.90;;
13493;SDS011;6819;50.886;4.332;2022-09-01T12:57:05;3.92;;;1.85;;
13493;SDS011;6819;50.886;4.332;2022-09-01T12:59:31;4.65;;;1.95;;
13493;SDS011;6819;50.886;4.332;2022-09-01T13:01:57;2.40;;;1.90;;
13493;SDS011;6819;50.886;4.332;2022-09-01T13:04:43;2.25;;;2.00;;
13493;SDS011;6819;50.886;4.332;2022-09-01T13:07:09;4.07;;;2.10;;
13493;SDS011;6819;50.886;4.332;2022-09-01T13:09:35;3.65;;;2.10;;
13493;SDS011;6819;50.886;4.332;2022-09-01T13:12:15;3.25;;;2.22;;
13493;SDS011;6819;50.886;4.332;2022-09-01T13:14:41;2.83;;;1.70;;
13493;SDS011;6819;50.886;4.332;2022-09-01T13:17:07;5.93;;;2.20;;
13493;SDS011;6819;50.886;4.332;2022-09-01T13:19:33;3.67;;;2.03;;
13493;SDS011;6819;50.886;4.332;2022-09-01T13:21:59;5.85;;;2.15;;
13493;SDS011;6819;50.886;4.332;2022-09-01T13:24:25;2.53;;;1.92;;
13493;SDS011;6819;50.886;4.332;2022-09-01T13:26:51;3.08;;;1.63;;
13493;SDS011;6819;50.886;4.332;2022-09-01T13:29:21;4.20;;;1.95;;
13493;SDS011;6819;50.886;4.332;2022-09-01T13:31:47;2.97;;;1.90;;
13493;SDS011;6819;50.886;4.332;2022-09-01T13:34:13;6.20;;;2.20;;
13493;SDS011;6819;50.886;4.332;2022-09-01T13:36:39;5.90;;;2.42;;
13493;SDS011;6819;50.886;4.332;2022-09-01T13:39:05;2.10;;;1.60;;
13493;SDS011;6819;50.886;4.332;2022-09-01T13:41:31;8.65;;;2.08;;
13493;SDS011;6819;50.886;4.332;2022-09-01T13:43:57;2.95;;;1.90;;
13493;SDS011;6819;50.886;4.332;2022-09-01T13:46:24;5.00;;;1.73;;
13493;SDS011;6819;50.886;4.332;2022-09-01T13:48:50;6.10;;;2.10;;
13493;SDS011;6819;50.886;4.332;2022-09-01T13:51:25;2.78;;;2.17;;
13493;SDS011;6819;50.886;4.332;2022-09-01T13:53:52;2.35;;;2.03;;
13493;SDS011;6819;50.886;4.332;2022-09-01T13:56:18;3.08;;;2.25;;
13493;SDS011;6819;50.886;4.332;2022-09-01T13:58:44;8.48;;;2.45;;
13493;SDS011;6819;50.886;4.332;2022-09-01T14:01:12;4.50;;;2.47;;
13493;SDS011;6819;50.886;4.332;2022-09-01T14:03:39;3.20;;;2.00;;
13493;SDS011;6819;50.886;4.332;2022-09-01T14:06:07;2.72;;;1.70;;
13493;SDS011;6819;50.886;4.332;2022-09-01T14:08:34;3.38;;;2.00;;
13493;SDS011;6819;50.886;4.332;2022-09-01T14:11:00;5.85;;;2.03;;
13493;SDS011;6819;50.886;4.332;2022-09-01T14:13:26;2.65;;;1.63;;
13493;SDS011;6819;50.886;4.332;2022-09-01T14:15:54;5.18;;;2.17;;
13493;SDS011;6819;50.886;4.332;2022-09-01T14:18:20;3.58;;;2.00;;
13493;SDS011;6819;50.886;4.332;2022-09-01T14:20:47;5.07;;;2.08;;
13493;SDS011;6819;50.886;4.332;2022-09-01T14:23:15;4.38;;;2.00;;
13493;SDS011;6819;50.886;4.332;2022-09-01T14:25:42;3.90;;;2.00;;
13493;SDS011;6819;50.886;4.332;2022-09-01T14:28:09;2.67;;;2.00;;
13493;SDS011;6819;50.886;4.332;2022-09-01T14:30:35;7.72;;;2.05;;
13493;SDS011;6819;50.886;4.332;2022-09-01T14:33:01;6.28;;;2.17;;
13493;SDS011;6819;50.886;4.332;2022-09-01T14:35:28;4.20;;;1.70;;
13493;SDS011;6819;50.886;4.332;2022-09-01T14:37:57;2.65;;;1.83;;
13493;SDS011;6819;50.886;4.332;2022-09-01T14:40:23;3.80;;;1.92;;
13493;SDS011;6819;50.886;4.332;2022-09-01T14:42:50;4.50;;;1.92;;
13493;SDS011;6819;50.886;4.332;2022-09-01T14:45:26;3.28;;;2.30;;
13493;SDS011;6819;50.886;4.332;2022-09-01T14:47:56;10.75;;;1.90;;
13493;SDS011;6819;50.886;4.332;2022-09-01T14:50:24;5.63;;;2.28;;
13493;SDS011;6819;50.886;4.332;2022-09-01T14:52:52;5.05;;;2.15;;
13493;SDS011;6819;50.886;4.332;2022-09-01T14:55:19;3.30;;;1.92;;
13493;SDS011;6819;50.886;4.332;2022-09-01T14:57:45;3.88;;;2.28;;
13493;SDS011;6819;50.886;4.332;2022-09-01T15:00:11;3.17;;;1.90;;
13493;SDS011;6819;50.886;4.332;2022-09-01T15:02:38;2.78;;;2.08;;
13493;SDS011;6819;50.886;4.332;2022-09-01T15:05:05;3.63;;;2.15;;
13493;SDS011;6819;50.886;4.332;2022-09-01T15:07:31;4.22;;;1.90;;
13493;SDS011;6819;50.886;4.332;2022-09-01T15:09:57;3.15;;;2.22;;
13493;SDS011;6819;50.886;4.332;2022-09-01T15:12:23;6.82;;;2.17;;
13493;SDS011;6819;50.886;4.332;2022-09-01T15:14:50;2.83;;;1.80;;
13493;SDS011;6819;50.886;4.332;2022-09-01T15:17:16;7.07;;;1.80;;
13493;SDS011;6819;50.886;4.332;2022-09-01T15:19:42;4.60;;;2.10;;
13493;SDS011;6819;50.886;4.332;2022-09-01T15:22:08;4.93;;;2.00;;
13493;SDS011;6819;50.886;4.332;2022-09-01T15:24:36;3.90;;;2.10;;
13493;SDS011;6819;50.886;4.332;2022-09-01T15:27:02;3.33;;;1.88;;
13493;SDS011;6819;50.886;4.332;2022-09-01T15:29:30;6.53;;;2.10;;
13493;SDS011;6819;50.886;4.332;2022-09-01T15:31:58;2.92;;;2.08;;
13493;SDS011;6819;50.886;4.332;2022-09-01T15:34:25;3.70;;;2.03;;
13493;SDS011;6819;50.886;4.332;2022-09-01T15:36:51;1.77;;;1.50;;
13493;SDS011;6819;50.886;4.332;2022-09-01T15:39:17;4.32;;;2.10;;
13493;SDS011;6819;50.886;4.332;2022-09-01T15:41:43;2.63;;;2.22;;
13493;SDS011;6819;50.886;4.332;2022-09-01T15:44:09;2.10;;;1.83;;
13493;SDS011;6819;50.886;4.332;2022-09-01T15:46:36;3.67;;;2.30;;
13493;SDS011;6819;50.886;4.332;2022-09-01T15:49:04;4.57;;;1.77;;
13493;SDS011;6819;50.886;4.332;2022-09-01T15:51:32;4.97;;;1.67;;
13493;SDS011;6819;50.886;4.332;2022-09-01T15:54:03;2.88;;;2.08;;
13493;SDS011;6819;50.886;4.332;2022-09-01T15:56:29;3.70;;;2.00;;
13493;SDS011;6819;50.886;4.332;2022-09-01T15:58:56;2.53;;;1.90;;
13493;SDS011;6819;50.886;4.332;2022-09-01T16:01:23;2.53;;;1.92;;
13493;SDS011;6819;50.886;4.332;2022-09-01T16:03:49;3.05;;;1.88;;
13493;SDS011;6819;50.886;4.332;2022-09-01T16:06:15;2.95;;;1.63;;
13493;SDS011;6819;50.886;4.332;2022-09-01T16:08:41;2.55;;;2.00;;
13493;SDS011;6819;50.886;4.332;2022-09-01T16:11:08;4.20;;;2.00;;
13493;SDS011;6819;50.886;4.332;2022-09-01T16:13:35;3.10;;;1.58;;
13493;SDS011;6819;50.886;4.332;2022-09-01T16:18:32;2.22;;;1.85;;
13493;SDS011;6819;50.886;4.332;2022-09-01T16:21:17;3.70;;;1.80;;
13493;SDS011;6819;50.886;4.332;2022-09-01T16:23:48;2.42;;;1.70;;
13493;SDS011;6819;50.886;4.332;2022-09-01T16:26:14;2.05;;;1.45;;